CGB2 weather

Bishell's Airport
Carstairs, Alberta, Canada

Public forecast

Using degrees Celsius for public forecast. Weather courtesy of forecast.io.

Closest aviation weather report (METAR) to Bishell's Airport

Closest report is Calgary International Airport, 28.2 nm (52.2 km) S. Retrieved 2020/07/04 06:00 UTC (21 minutes ago):

CYYC 040600Z 21004KT 15SM SCT230 16/10 A2994 RMK CI3 SLP135 DENSITY ALT 4600FT

Closest aviation forecast (TAF) to Bishell's Airport

Closest forecast is Calgary International Airport, 28.2 nm (52.2 km) S. Retrieved 2020/07/04 06:45 UTC (0 seconds ago):

TAF CYYC 040543Z 0406/0506 18006KT P6SM FEW120 SCT230 BECMG 0409/0411 VRB03KT FM041400 18005KT P6SM BKN160 FM041700 18008KT P6SM BKN080 TEMPO 0417/0420 P6SM -SHRA BKN060 PROB30 0417/0420 VRB20G30KT 3SM TSRA BR OVC060CB FM042000 30015KT P6SM BKN080 TEMPO 0420/0423 P6SM -SHRA BKN060 PROB30 0420/0423 VRB20G30KT 3SM TSRA BR OVC060CB FM042300 33015KT P6SM SCT080 BECMG 0501/0503 33008KT RMK NXT FCST BY 040900Z